Terminal Aerodrome Forecast
Issued by NWS Wilmington, NC

Home | Current Version | Previous Version | Text Only | Print | Product List | Glossary On
Versions: 1 2 3 4 5 6 7 8 9 10 11 12 13 14 15 16 17 18
000
FTUS42 KILM 212321
TAFMYR
TAF
KMYR 212321Z 2200/2224 14006KT P6SM FEW020 BKN250
     FM220900 00000KT 4SM BR SCT250
     FM221200 00000KT 2SM BR SCT250
     FM221400 18006KT P6SM BKN250
     FM221800 17010KT P6SM VCTS SCT040CB BKN100
      AMD LTD TO CLD VIS AND WIND 2203/2210=

USA.gov is the U.S. government's official web portal to all federal, state and local government web resources and services.